createdAt,value
2018-11-26T00:00:52.391Z,42.40
2018-11-26T00:03:21.128Z,39.90
2018-11-26T00:05:50.059Z,38.03
2018-11-26T00:08:18.670Z,39.83
2018-11-26T00:11:29.726Z,39.27
2018-11-26T00:13:58.440Z,38.77
2018-11-26T00:16:27.124Z,42.43
2018-11-26T00:18:55.748Z,39.40
2018-11-26T00:21:24.393Z,35.80
2018-11-26T00:23:53.065Z,38.00
2018-11-26T00:26:21.713Z,35.37
2018-11-26T00:28:50.348Z,40.77
2018-11-26T00:31:18.964Z,46.20
2018-11-26T00:33:47.595Z,37.03
2018-11-26T00:36:16.226Z,36.90
2018-11-26T00:38:44.864Z,40.40
2018-11-26T00:41:13.472Z,41.07
2018-11-26T00:43:42.108Z,41.13
2018-11-26T00:46:10.712Z,41.77
2018-11-26T00:48:39.310Z,40.80
2018-11-26T00:51:08.010Z,45.60
2018-11-26T00:53:36.662Z,42.87
2018-11-26T00:56:05.720Z,38.37
2018-11-26T00:58:34.322Z,38.97
2018-11-26T01:01:03.029Z,47.33
2018-11-26T01:03:31.624Z,39.30
2018-11-26T01:06:00.259Z,37.97
2018-11-26T01:08:28.886Z,36.80
2018-11-26T01:10:57.509Z,39.40
2018-11-26T01:13:26.111Z,44.13
2018-11-26T01:15:54.759Z,38.13
2018-11-26T01:18:23.415Z,37.80
2018-11-26T01:20:52.024Z,41.97
2018-11-26T01:23:20.667Z,36.63
2018-11-26T01:25:49.264Z,35.40
2018-11-26T01:28:17.911Z,48.70
2018-11-26T01:30:46.533Z,37.60
2018-11-26T01:33:15.124Z,38.10
2018-11-26T01:35:43.800Z,44.07
2018-11-26T01:38:12.383Z,35.73
2018-11-26T01:40:46.325Z,38.57
2018-11-26T01:43:14.962Z,38.60
2018-11-26T01:45:43.561Z,40.00
2018-11-26T01:48:12.163Z,43.70
2018-11-26T01:50:40.785Z,36.37
2018-11-26T01:53:09.555Z,39.40
2018-11-26T01:55:38.219Z,36.07
2018-11-26T01:58:06.904Z,39.57
2018-11-26T02:00:35.553Z,47.00
2018-11-26T02:03:04.220Z,41.33
2018-11-26T02:05:32.821Z,43.27
2018-11-26T02:08:01.445Z,44.27
2018-11-26T02:10:30.094Z,36.93
2018-11-26T02:12:58.721Z,40.60
2018-11-26T02:15:42.495Z,40.53
2018-11-26T02:18:11.669Z,38.40
2018-11-26T02:20:40.426Z,39.27
2018-11-26T02:23:09.123Z,36.90
2018-11-26T02:25:37.982Z,36.53
2018-11-26T02:28:07.475Z,35.50
2018-11-26T02:30:36.255Z,37.93
2018-11-26T02:33:05.010Z,41.87
2018-11-26T02:35:33.639Z,38.17
2018-11-26T02:38:02.243Z,43.00
2018-11-26T02:40:34.655Z,39.30
2018-11-26T02:43:03.277Z,36.90
2018-11-26T02:45:31.927Z,36.53
2018-11-26T02:48:00.625Z,33.73
2018-11-26T02:50:29.411Z,46.47
2018-11-26T02:52:58.149Z,42.40
2018-11-26T02:55:26.841Z,40.20
2018-11-26T02:57:55.589Z,38.70
2018-11-26T03:00:24.345Z,38.00
2018-11-26T03:02:53.032Z,37.73
2018-11-26T03:05:26.372Z,39.83
2018-11-26T03:07:55.096Z,38.50
2018-11-26T03:10:24.107Z,30.93
2018-11-26T03:12:52.928Z,45.13
2018-11-26T03:15:21.611Z,43.83
2018-11-26T03:17:50.332Z,40.27
2018-11-26T03:20:19.008Z,40.83
2018-11-26T03:22:47.751Z,42.93
2018-11-26T03:25:16.451Z,40.47
2018-11-26T03:27:45.168Z,44.20
2018-11-26T03:30:19.342Z,44.27
2018-11-26T03:32:48.010Z,43.53
2018-11-26T03:35:16.618Z,42.80
2018-11-26T03:37:45.255Z,42.20
2018-11-26T03:40:14.499Z,53.93
2018-11-26T03:42:43.994Z,44.30
2018-11-26T03:45:16.016Z,43.80
2018-11-26T03:47:44.687Z,44.03
2018-11-26T03:50:13.973Z,41.00
2018-11-26T03:52:44.381Z,40.13
2018-11-26T03:55:13.455Z,42.10
2018-11-26T03:57:42.156Z,42.87
2018-11-26T04:00:14.393Z,40.23
2018-11-26T04:02:43.075Z,45.03
2018-11-26T04:05:12.198Z,49.20
2018-11-26T04:07:41.033Z,48.63
2018-11-26T04:10:10.973Z,48.00
2018-11-26T04:12:39.676Z,36.97
2018-11-26T04:15:10.293Z,43.77
2018-11-26T04:17:38.939Z,42.37
2018-11-26T04:20:08.649Z,38.57
2018-11-26T04:22:37.349Z,42.83
2018-11-26T04:25:07.378Z,44.30
2018-11-26T04:27:36.170Z,42.10
2018-11-26T04:30:06.120Z,40.77
2018-11-26T04:32:34.795Z,44.07
2018-11-26T04:35:03.488Z,42.80
2018-11-26T04:37:32.144Z,38.07
2018-11-26T04:40:00.848Z,42.03
2018-11-26T04:42:29.493Z,40.73
2018-11-26T04:44:58.147Z,36.90
2018-11-26T04:47:26.768Z,35.03
2018-11-26T04:49:55.441Z,42.57
2018-11-26T04:52:24.124Z,37.73
2018-11-26T04:54:52.759Z,40.80
2018-11-26T04:57:21.408Z,43.80
2018-11-26T04:59:50.041Z,36.73
2018-11-26T05:02:18.723Z,42.50
2018-11-26T05:04:47.340Z,41.77
2018-11-26T05:07:16.028Z,38.17
2018-11-26T05:09:44.656Z,42.43
2018-11-26T05:12:13.313Z,41.20
2018-11-26T05:14:41.972Z,42.73
2018-11-26T05:17:10.625Z,40.03
2018-11-26T05:19:39.296Z,49.77
2018-11-26T05:22:07.944Z,42.20
2018-11-26T05:24:36.653Z,50.60
2018-11-26T05:27:05.504Z,46.40
2018-11-26T05:29:34.194Z,42.73
2018-11-26T05:32:02.820Z,45.27
2018-11-26T05:34:31.482Z,53.10
2018-11-26T05:37:00.097Z,41.80
2018-11-26T05:39:28.792Z,40.33
2018-11-26T05:41:57.407Z,47.03
2018-11-26T05:44:26.076Z,54.13
2018-11-26T05:46:54.701Z,50.40
2018-11-26T05:49:23.444Z,46.60
2018-11-26T05:51:52.165Z,60.93
2018-11-26T05:54:20.853Z,51.97
2018-11-26T05:56:49.526Z,52.33
2018-11-26T05:59:18.183Z,65.00
2018-11-26T06:01:46.853Z,53.30
2018-11-26T06:04:15.497Z,61.43
2018-11-26T06:06:44.139Z,59.13
2018-11-26T06:09:12.827Z,57.83
2018-11-26T06:11:41.503Z,55.10
2018-11-26T06:14:10.184Z,55.90
2018-11-26T06:16:38.808Z,56.10
2018-11-26T06:19:07.597Z,62.10
2018-11-26T06:21:36.439Z,57.87
2018-11-26T06:24:05.184Z,65.20
2018-11-26T06:26:33.908Z,55.97
2018-11-26T06:29:02.555Z,52.53
2018-11-26T06:31:31.218Z,59.13
2018-11-26T06:33:59.844Z,59.97
2018-11-26T06:36:28.501Z,76.80
2018-11-26T06:38:57.129Z,49.33
2018-11-26T06:41:25.831Z,63.90
2018-11-26T06:43:54.485Z,67.23
2018-11-26T06:46:23.142Z,57.90
2018-11-26T06:48:51.784Z,59.90
2018-11-26T06:51:20.468Z,62.70
2018-11-26T06:53:49.121Z,59.90
2018-11-26T06:56:17.768Z,56.27
2018-11-26T06:58:46.411Z,61.40
2018-11-26T07:01:15.079Z,54.27
2018-11-26T07:03:43.744Z,59.07
2018-11-26T07:06:12.377Z,52.13
2018-11-26T07:08:41.007Z,54.27
2018-11-26T07:11:09.650Z,62.60
2018-11-26T07:13:38.288Z,60.67
2018-11-26T07:16:07.029Z,59.93
2018-11-26T07:18:35.869Z,57.50
2018-11-26T07:21:04.770Z,54.33
2018-11-26T07:23:33.441Z,52.50
2018-11-26T07:26:02.387Z,59.57
2018-11-26T07:28:31.077Z,49.37
2018-11-26T07:30:59.705Z,47.27
2018-11-26T07:33:28.320Z,55.30
2018-11-26T07:35:57.032Z,48.50
2018-11-26T07:38:25.640Z,42.90
2018-11-26T07:40:54.648Z,44.80
2018-11-26T07:43:23.278Z,42.23
2018-11-26T07:45:51.913Z,44.60
2018-11-26T07:48:20.548Z,40.77
2018-11-26T07:50:49.206Z,36.87
2018-11-26T07:53:17.861Z,38.73
2018-11-26T07:55:46.468Z,40.60
2018-11-26T07:58:15.130Z,35.97
2018-11-26T08:00:43.773Z,35.37
2018-11-26T08:03:12.471Z,39.33
2018-11-26T08:05:41.075Z,34.90
2018-11-26T08:08:09.785Z,36.80
2018-11-26T08:10:38.430Z,37.63
2018-11-26T08:13:07.177Z,37.97
2018-11-26T08:15:35.794Z,34.00
2018-11-26T08:18:04.465Z,40.23
2018-11-26T08:20:33.088Z,37.07
2018-11-26T08:23:01.725Z,33.93
2018-11-26T08:25:30.333Z,34.97
2018-11-26T08:27:58.977Z,37.10
2018-11-26T08:30:28.116Z,33.07
2018-11-26T08:32:58.923Z,30.73
2018-11-26T08:35:27.651Z,34.40
2018-11-26T08:38:02.280Z,31.30
2018-11-26T08:40:36.231Z,32.57
2018-11-26T08:43:11.940Z,31.20
2018-11-26T08:45:47.616Z,30.90
2018-11-26T08:48:20.421Z,32.80
2018-11-26T08:50:49.129Z,37.43
2018-11-26T08:53:17.837Z,31.93
2018-11-26T08:55:46.805Z,31.33
2018-11-26T08:58:15.437Z,36.23
2018-11-26T09:00:46.164Z,29.23
2018-11-26T09:03:20.806Z,30.20
2018-11-26T09:06:04.734Z,33.83
2018-11-26T09:08:35.929Z,35.53
2018-11-26T09:11:05.397Z,30.27
2018-11-26T09:13:33.985Z,33.80
2018-11-26T09:16:02.627Z,32.63
2018-11-26T09:18:31.244Z,33.80
2018-11-26T09:20:59.884Z,35.93
2018-11-26T09:23:28.537Z,29.30
2018-11-26T09:25:57.182Z,30.93
2018-11-26T09:28:25.795Z,27.97
2018-11-26T09:30:54.411Z,31.33
2018-11-26T09:33:23.100Z,32.43
2018-11-26T09:35:51.703Z,36.30
2018-11-26T09:38:20.351Z,32.80
2018-11-26T09:40:48.996Z,36.07
2018-11-26T09:43:17.627Z,34.03
2018-11-26T09:45:46.249Z,35.10
2018-11-26T09:48:14.886Z,33.33
2018-11-26T09:50:43.545Z,33.97
2018-11-26T09:53:12.228Z,34.30
2018-11-26T09:55:40.863Z,35.30
2018-11-26T09:58:09.535Z,40.23
2018-11-26T10:00:38.257Z,33.40
2018-11-26T10:03:06.935Z,34.57
2018-11-26T10:05:35.609Z,37.40
2018-11-26T10:08:04.248Z,33.47
2018-11-26T10:10:32.893Z,31.30
2018-11-26T10:13:01.524Z,33.23
2018-11-26T10:15:30.172Z,31.30
2018-11-26T10:17:58.804Z,31.30
2018-11-26T10:20:27.461Z,32.90
2018-11-26T10:22:56.101Z,41.10
2018-11-26T10:25:24.857Z,35.13
2018-11-26T10:27:53.499Z,35.43
2018-11-26T10:30:23.487Z,32.70
2018-11-26T10:32:52.817Z,32.07
2018-11-26T10:35:21.917Z,32.83
2018-11-26T10:37:50.663Z,28.60
2018-11-26T10:40:21.633Z,32.40
2018-11-26T10:42:50.325Z,27.73
2018-11-26T10:45:19.846Z,30.97
2018-11-26T10:47:48.534Z,30.63
2018-11-26T10:50:18.457Z,32.60
2018-11-26T10:52:48.663Z,30.57
2018-11-26T10:55:21.148Z,29.23
2018-11-26T10:57:49.773Z,28.10
2018-11-26T11:00:23.770Z,33.30
2018-11-26T11:02:52.660Z,35.90
2018-11-26T11:05:21.324Z,34.60
2018-11-26T11:07:49.952Z,36.40
2018-11-26T11:10:21.886Z,28.23
2018-11-26T11:12:50.640Z,34.00
2018-11-26T11:15:19.290Z,29.67
2018-11-26T11:17:47.960Z,33.37
2018-11-26T11:20:22.343Z,31.80
2018-11-26T11:22:50.989Z,36.60
2018-11-26T11:25:20.224Z,37.23
2018-11-26T11:27:49.149Z,32.90
2018-11-26T11:30:20.666Z,33.67
2018-11-26T11:32:49.320Z,33.03
2018-11-26T11:35:18.461Z,38.53
2018-11-26T11:37:48.078Z,34.67
2018-11-26T11:40:23.528Z,30.53
2018-11-26T11:42:52.632Z,33.87
2018-11-26T11:45:21.717Z,35.03
2018-11-26T11:47:50.401Z,31.77
2018-11-26T11:50:19.868Z,31.83
2018-11-26T11:52:48.690Z,32.10
2018-11-26T11:55:18.369Z,30.57
2018-11-26T11:57:47.029Z,29.43
2018-11-26T12:00:25.222Z,30.37
2018-11-26T12:02:53.888Z,36.87
2018-11-26T12:05:22.507Z,37.73
2018-11-26T12:07:51.157Z,34.93
2018-11-26T12:10:19.777Z,29.57
2018-11-26T12:12:48.416Z,30.73
2018-11-26T12:15:17.573Z,30.80
2018-11-26T12:17:47.105Z,33.30
2018-11-26T12:20:15.942Z,36.70
2018-11-26T12:22:45.105Z,33.40
2018-11-26T12:25:18.506Z,35.60
2018-11-26T12:27:47.113Z,31.40
2018-11-26T12:30:23.602Z,30.87
2018-11-26T12:32:52.229Z,33.20
2018-11-26T12:35:20.894Z,30.40
2018-11-26T12:37:49.509Z,30.93
2018-11-26T12:40:21.101Z,31.20
2018-11-26T12:42:50.803Z,29.70
2018-11-26T12:45:20.948Z,29.47
2018-11-26T12:47:49.595Z,30.13
2018-11-26T12:50:18.330Z,30.67
2018-11-26T12:52:46.945Z,31.10
2018-11-26T12:55:16.736Z,29.10
2018-11-26T12:57:46.290Z,32.63
2018-11-26T13:00:26.968Z,27.90
2018-11-26T13:02:59.746Z,29.73
2018-11-26T13:05:28.410Z,30.77
2018-11-26T13:07:57.042Z,33.03
2018-11-26T13:10:25.718Z,28.27
2018-11-26T13:12:54.350Z,29.60
2018-11-26T13:15:25.126Z,29.97
2018-11-26T13:17:53.788Z,33.90
2018-11-26T13:20:25.685Z,30.20
2018-11-26T13:22:54.645Z,26.90
2018-11-26T13:25:25.465Z,34.73
2018-11-26T13:27:56.461Z,29.97
2018-11-26T13:30:35.207Z,30.67
2018-11-26T13:33:06.240Z,31.27
2018-11-26T13:35:34.912Z,28.80
2018-11-26T13:38:03.542Z,34.37
2018-11-26T13:40:32.170Z,29.70
2018-11-26T13:43:00.804Z,33.60
2018-11-26T13:45:34.913Z,32.53
2018-11-26T13:48:04.181Z,29.60
2018-11-26T13:50:35.734Z,31.47
2018-11-26T13:53:04.447Z,32.23
2018-11-26T13:55:33.134Z,30.10
2018-11-26T13:58:01.774Z,26.67
2018-11-26T14:00:30.421Z,28.20
2018-11-26T14:02:59.093Z,34.87
2018-11-26T14:05:27.740Z,37.70
2018-11-26T14:07:56.417Z,34.73
2018-11-26T14:10:26.828Z,58.00
2018-11-26T14:12:58.944Z,48.30
2018-11-26T14:15:27.665Z,33.00
2018-11-26T14:17:56.290Z,35.13
2018-11-26T14:20:24.957Z,36.47
2018-11-26T14:22:53.599Z,30.33
2018-11-26T14:25:22.225Z,33.90
2018-11-26T14:27:51.022Z,30.93
2018-11-26T14:30:23.210Z,35.33
2018-11-26T14:32:51.929Z,32.73
2018-11-26T14:35:20.690Z,32.53
2018-11-26T14:37:51.553Z,35.03
2018-11-26T14:40:28.315Z,36.00
2018-11-26T14:42:56.948Z,30.60
2018-11-26T14:45:25.609Z,40.03
2018-11-26T14:47:54.283Z,33.90
2018-11-26T14:50:22.945Z,35.67
2018-11-26T14:52:51.561Z,35.10
2018-11-26T14:55:25.466Z,35.20
2018-11-26T14:57:54.132Z,31.20
2018-11-26T15:00:22.879Z,37.93
2018-11-26T15:02:51.615Z,37.70
2018-11-26T15:05:20.273Z,35.57
2018-11-26T15:07:49.195Z,35.10
2018-11-26T15:10:18.956Z,34.80
2018-11-26T15:12:47.750Z,30.53
2018-11-26T15:15:18.487Z,37.57
2018-11-26T15:17:47.484Z,34.03
2018-11-26T15:20:21.670Z,34.93
2018-11-26T15:22:50.897Z,40.00
2018-11-26T15:25:21.886Z,30.60
2018-11-26T15:27:51.394Z,40.50
2018-11-26T15:30:20.980Z,34.23
2018-11-26T15:32:50.044Z,39.73
2018-11-26T15:35:21.126Z,37.03
2018-11-26T15:37:49.751Z,35.47
2018-11-26T15:40:19.659Z,33.37
2018-11-26T15:42:48.321Z,34.50
2018-11-26T15:45:20.808Z,38.07
2018-11-26T15:47:50.142Z,32.10
2018-11-26T15:50:18.818Z,35.03
2018-11-26T15:52:47.445Z,37.53
2018-11-26T15:55:17.978Z,34.13
2018-11-26T15:57:46.695Z,33.10
2018-11-26T16:00:20.395Z,33.93
2018-11-26T16:02:49.131Z,34.80
2018-11-26T16:05:19.095Z,39.87
2018-11-26T16:07:49.616Z,36.80
2018-11-26T16:10:18.291Z,34.90
2018-11-26T16:12:49.005Z,34.83
2018-11-26T16:15:21.831Z,33.00
2018-11-26T16:17:51.003Z,34.83
2018-11-26T16:20:21.033Z,34.00
2018-11-26T16:22:49.704Z,35.73
2018-11-26T16:25:19.843Z,37.40
2018-11-26T16:27:48.464Z,39.50
2018-11-26T16:30:17.941Z,40.23
2018-11-26T16:32:48.860Z,35.30
2018-11-26T16:35:21.242Z,36.93
2018-11-26T16:37:49.864Z,39.70
2018-11-26T16:40:18.613Z,37.03
2018-11-26T16:42:47.281Z,33.80
2018-11-26T16:45:19.894Z,34.13
2018-11-26T16:47:49.948Z,37.63
2018-11-26T16:50:19.714Z,36.27
2018-11-26T16:52:48.386Z,38.83
2018-11-26T16:55:17.572Z,36.07
2018-11-26T16:57:46.285Z,40.00
2018-11-26T17:00:20.201Z,35.97
2018-11-26T17:02:50.130Z,44.83
2018-11-26T17:05:20.537Z,40.70
2018-11-26T17:07:49.150Z,33.73
2018-11-26T17:10:17.818Z,37.77
2018-11-26T17:12:46.458Z,36.50
2018-11-26T17:15:16.586Z,39.27
2018-11-26T17:17:45.350Z,36.20
2018-11-26T17:20:14.974Z,33.17
2018-11-26T17:22:43.681Z,39.73
2018-11-26T17:25:13.389Z,42.53
2018-11-26T17:27:42.707Z,39.50
2018-11-26T17:30:13.780Z,35.03
2018-11-26T17:32:42.413Z,37.03
2018-11-26T17:35:12.733Z,40.60
2018-11-26T17:37:43.052Z,39.77
2018-11-26T17:40:16.023Z,36.37
2018-11-26T17:42:45.613Z,40.63
2018-11-26T17:45:14.829Z,37.30
2018-11-26T17:47:46.554Z,39.17
2018-11-26T17:50:22.705Z,43.63
2018-11-26T17:52:51.368Z,44.63
2018-11-26T17:55:20.054Z,43.00
2018-11-26T17:57:48.694Z,35.23
2018-11-26T18:00:19.989Z,41.57
2018-11-26T18:02:48.631Z,40.53
2018-11-26T18:05:19.044Z,35.60
2018-11-26T18:07:49.823Z,35.60
2018-11-26T18:10:18.486Z,38.10
2018-11-26T18:12:47.129Z,31.00
2018-11-26T18:15:15.982Z,32.40
2018-11-26T18:17:45.835Z,40.73
2018-11-26T18:20:16.961Z,31.17
2018-11-26T18:22:48.159Z,35.37
2018-11-26T18:25:17.428Z,41.70
2018-11-26T18:27:50.184Z,35.47
2018-11-26T18:30:23.595Z,34.23
2018-11-26T18:32:52.224Z,34.87
2018-11-26T18:35:23.131Z,33.60
2018-11-26T18:37:57.352Z,31.73
2018-11-26T18:40:26.513Z,33.70
2018-11-26T18:42:55.291Z,34.60
2018-11-26T18:45:23.982Z,33.20
2018-11-26T18:47:53.191Z,45.10
2018-11-26T18:50:22.415Z,40.50
2018-11-26T18:52:51.661Z,43.23
2018-11-26T18:56:57.211Z,42.63
2018-11-26T18:59:25.902Z,40.63
2018-11-26T19:01:54.570Z,40.30
2018-11-26T19:04:23.287Z,42.60
2018-11-26T19:09:34.846Z,49.87
2018-11-26T19:12:04.150Z,56.50
2018-11-26T19:14:32.263Z,56.53
2018-11-26T19:17:01.031Z,50.03
2018-11-26T19:19:29.699Z,61.63
2018-11-26T19:21:58.510Z,62.77
2018-11-26T19:24:27.218Z,62.27
2018-11-26T19:26:56.078Z,59.70
2018-11-26T19:29:24.792Z,65.90
2018-11-26T19:31:55.982Z,60.07
2018-11-26T19:34:22.245Z,60.50
2018-11-26T19:36:50.921Z,66.40
2018-11-26T19:39:19.615Z,61.87
2018-11-26T19:41:48.293Z,57.50
2018-11-26T19:44:16.938Z,66.10
2018-11-26T19:46:45.723Z,67.07
2018-11-26T19:49:14.391Z,64.73
2018-11-26T19:51:43.157Z,66.47
2018-11-26T19:54:11.814Z,74.60
2018-11-26T19:56:40.529Z,69.53
2018-11-26T19:59:09.249Z,73.03
2018-11-26T20:01:38.146Z,70.17
2018-11-26T20:04:21.113Z,69.17
2018-11-26T20:06:49.828Z,67.30
2018-11-26T20:09:18.569Z,66.57
2018-11-26T20:11:47.234Z,69.40
2018-11-26T20:14:21.279Z,73.67
2018-11-26T20:16:45.528Z,73.50
2018-11-26T20:19:14.200Z,73.83
2018-11-26T20:21:42.837Z,76.20
2018-11-26T20:24:11.507Z,75.47
2018-11-26T20:26:40.142Z,74.77
2018-11-26T20:29:08.877Z,72.90
2018-11-26T20:31:37.545Z,72.70
2018-11-26T20:34:06.950Z,71.97
2018-11-26T20:36:35.582Z,73.60
2018-11-26T20:39:06.160Z,66.27
2018-11-26T20:41:34.792Z,72.30
2018-11-26T20:44:03.488Z,77.90
2018-11-26T20:46:32.112Z,85.93
2018-11-26T20:49:00.793Z,75.93
2018-11-26T20:51:29.794Z,72.17
2018-11-26T20:53:58.437Z,76.80
2018-11-26T20:56:27.082Z,75.97
2018-11-26T20:58:55.757Z,82.47
2018-11-26T21:01:24.427Z,77.53
2018-11-26T21:03:53.120Z,82.73
2018-11-26T21:06:21.770Z,80.87
2018-11-26T21:08:50.594Z,82.23
2018-11-26T21:11:19.266Z,80.37
2018-11-26T21:13:47.929Z,83.93
2018-11-26T21:16:16.572Z,77.63
2018-11-26T21:18:45.249Z,82.40
2018-11-26T21:21:13.915Z,78.37
2018-11-26T21:23:42.660Z,80.87
2018-11-26T21:26:11.348Z,85.30
2018-11-26T21:28:40.025Z,76.30
2018-11-26T21:31:08.685Z,76.43
2018-11-26T21:33:37.371Z,77.13
2018-11-26T21:36:06.449Z,78.27
2018-11-26T21:38:38.572Z,87.60
2018-11-26T21:41:07.341Z,84.60
2018-11-26T21:43:35.975Z,77.57
2018-11-26T21:46:04.876Z,76.07
2018-11-26T21:48:33.497Z,76.10
2018-11-26T21:51:02.397Z,79.80
2018-11-26T21:53:31.030Z,72.00
2018-11-26T21:56:00.172Z,77.93
2018-11-26T21:58:28.802Z,74.27
2018-11-26T22:00:58.721Z,78.83
2018-11-26T22:03:30.574Z,82.27
2018-11-26T22:05:56.062Z,83.93
2018-11-26T22:08:24.741Z,82.63
2018-11-26T22:10:53.425Z,87.87
2018-11-26T22:13:22.437Z,83.97
2018-11-26T22:15:51.154Z,83.27
2018-11-26T22:18:19.857Z,71.53
2018-11-26T22:20:48.528Z,82.27
2018-11-26T22:23:17.270Z,91.13
2018-11-26T22:25:45.927Z,85.83
2018-11-26T22:28:14.652Z,72.77
2018-11-26T22:30:43.306Z,87.13
2018-11-26T22:33:12.022Z,78.63
2018-11-26T22:35:40.686Z,82.53
2018-11-26T22:38:09.372Z,86.80
2018-11-26T22:40:38.144Z,80.30
2018-11-26T22:43:12.373Z,79.27
2018-11-26T22:45:41.026Z,92.43
2018-11-26T22:48:11.089Z,87.20
2018-11-26T22:50:42.905Z,82.07
2018-11-26T22:53:11.603Z,80.67
2018-11-26T22:55:40.344Z,85.93
2018-11-26T22:58:11.501Z,85.97
2018-11-26T23:00:49.850Z,79.83
2018-11-26T23:03:19.681Z,88.70
2018-11-26T23:05:48.332Z,79.00
2018-11-26T23:08:16.990Z,78.80
2018-11-26T23:10:47.037Z,85.63
2018-11-26T23:15:58.919Z,79.17
2018-11-26T23:18:27.565Z,74.47
2018-11-26T23:20:56.176Z,86.00
2018-11-26T23:23:27.924Z,79.70
2018-11-26T23:25:56.565Z,80.90
2018-11-26T23:28:25.226Z,78.00
2018-11-26T23:30:53.818Z,75.90
2018-11-26T23:33:22.448Z,87.43
2018-11-26T23:35:51.083Z,62.33
2018-11-26T23:38:19.741Z,89.63
2018-11-26T23:40:48.363Z,82.87
2018-11-26T23:43:17.006Z,69.77
2018-11-26T23:45:47.117Z,84.37
2018-11-26T23:48:16.957Z,84.60
2018-11-26T23:50:47.443Z,81.37
2018-11-26T23:53:16.071Z,84.07
2018-11-26T23:55:44.683Z,71.57
2018-11-26T23:58:13.321Z,82.27
